Flight Track Log - Related Links

Times and Time Zones

All times are in EDT time to prevent confusion due to time zone crossing. See the SKW6503 flight status page for this flight to view local times or setup timezone preferences in your user account.

Time Position Orientation Groundspeed Altitude Reporting Facility
EDT Latitude Longitude Course Direction KTS MPH feet Rate Location/Type
12:23AM 37.6333 -122.3500 11° North 173 199 1,800  Level Northern Cal TRACON
12:25AM 37.9791 -122.3500 North  Level FlightAware Approximate
12:25AM 37.7169 -122.2589 41° Northeast 232 267 6,200  Level Oakland Center
12:26AM 38.0999 -122.3333 North  Level FlightAware Approximate
12:26AM 37.7900 -122.2392 12° North 280 322 9,000  Level Oakland Center
12:27AM 38.2231 -122.3333 North  Level FlightAware Approximate
12:27AM 37.8711 -122.2389 360° North 289 333 11,200  Level Oakland Center
12:28AM 38.3459 -122.3260 11° North  Level FlightAware Approximate
12:28AM 37.9647 -122.2397 360° North 335 386 13,300  Level Oakland Center
12:29AM 38.0806 -122.2544 354° North 351 404 16,000 2,361 Climbing Oakland Center
12:30AM 38.1806 -122.2694 353° North 362 417 18,100 1,967 Climbing Oakland Center
12:31AM 38.2844 -122.2844 354° North 375 432 20,000 1,770 Climbing Oakland Center
12:32AM 38.3903 -122.3014 353° North 386 444 21,700 1,770 Climbing Oakland Center
12:33AM 38.4992 -122.3169 354° North 392 451 23,600 1,623 Climbing Oakland Center
12:34AM 38.6092 -122.3333 353° North 397 457 25,000 1,366 Climbing Oakland Center
12:35AM 38.7244 -122.3497 354° North 409 471 26,400 1,317 Climbing Oakland Center
12:36AM 38.8419 -122.3675 353° North 421 484 27,700 1,230 Climbing Oakland Center
12:37AM 38.9597 -122.3853 353° North 427 491 28,900 1,721 Climbing Oakland Center
12:38AM 39.1006 -122.4056 354° North 421 484 31,200 1,525 Climbing Oakland Center
12:39AM 39.2147 -122.4228 353° North 413 475 32,000 393 Climbing Oakland Center
12:40AM 39.3347 -122.4419 353° North 431 496 32,000  Level Oakland Center
12:41AM 39.4542 -122.4592 354° North 431 496 32,000  Level Oakland Center
12:42AM 39.5653 -122.4750 354° North 433 498 32,000  Level Oakland Center
12:43AM 39.6844 -122.4936 353° North 431 496 32,000  Level Oakland Center
12:44AM 39.8047 -122.5128 353° North 434 499 32,000  Level Oakland Center
12:45AM 39.9267 -122.5322 353° North 437 503 32,000  Level Oakland Center
12:46AM 40.0497 -122.5517 353° North 440 506 32,000  Level Oakland Center
12:47AM 40.1750 -122.5714 353° North 444 511 32,000  Level Oakland Center
12:48AM 40.2989 -122.5892 354° North 442 509 32,000  Level Oakland Center
12:49AM 40.4467 -122.6119 353° North 442 509 32,000  Level Oakland Center
12:50AM 40.5689 -122.6308 353° North 442 509 32,000  Level Oakland Center
12:51AM 40.6903 -122.6503 353° North 440 506 32,000  Level Oakland Center
12:52AM 40.8103 -122.6714 352° North 436 502 32,000  Level Oakland Center
12:53AM 40.9319 -122.6908 353° North 439 505 32,000  Level Oakland Center
12:54AM 41.0544 -122.7092 354° North 442 509 32,000  Level Oakland Center
12:55AM 41.1750 -122.7300 353° North 439 505 32,000  Level Oakland Center
12:56AM 41.2239 -122.7383 353° North 438 504 32,000  Level Seattle Center
12:57AM 41.3447 -122.7569 353° North 438 504 32,000  Level Seattle Center
12:58AM 41.4797 -122.7781 353° North 438 504 32,000  Level Seattle Center
12:59AM 41.6014 -122.7978 353° North 437 503 32,000  Level Seattle Center
01:00AM 41.7233 -122.8153 354° North 438 504 32,000  Level Seattle Center
01:01AM 41.8447 -122.8361 353° North 437 503 32,000  Level Seattle Center
01:02AM 41.9672 -122.8544 354° North 440 506 32,000  Level Seattle Center
01:03AM 42.0894 -122.8758 353° North 436 502 32,000  Level Seattle Center
01:04AM 42.2117 -122.8947 353° North 440 506 32,000  Level Seattle Center
01:05AM 42.3353 -122.9136 354° North 443 510 32,000  Level Seattle Center
01:06AM 42.4569 -122.9342 353° North 442 509 32,000  Level Seattle Center
01:07AM 42.5781 -122.9542 353° North 440 506 32,000 -694 Level Seattle Center
01:08AM 42.6967 -122.9758 352° North 430 495 30,600 -2,231 Descending Seattle Center
01:09AM 42.8325 -122.9981 353° North 431 496 27,500 -2,852 Descending Seattle Center
01:10AM 42.9489 -123.0194 352° North 423 487 24,800 -2,678 Descending Seattle Center
01:11AM 43.0614 -123.0367 354° North 405 466 22,100 -2,678 Descending Seattle Center
01:12AM 43.1686 -123.0561 352° North 392 451 19,400 -2,311 Descending Seattle Center
01:13AM 43.2708 -123.0750 352° North 378 435 17,400 -2,132 Descending Seattle Center
01:14AM 43.3733 -123.0900 354° North 364 419 15,100 -2,182 Descending Seattle Center
01:15AM 43.4714 -123.1083 352° North 350 403 13,000 -1,983 Descending Seattle Center
01:16AM 43.5678 -123.1250 353° North 341 392 11,100 -1,488 Descending Seattle Center
01:17AM 43.6544 -123.1403 353° North 303 349 10,000 -992 Descending Seattle Center
01:18AM 43.7181 -123.1656 344° North 254 292 9,100 -1,339 Descending Seattle Center
01:19AM 43.7806 -123.1972 340° North 238 274 7,300 -1,636 Descending Seattle Center
01:20AM 43.8372 -123.2147 347° North 205 236 5,800 -1,190 Descending Seattle Center
01:21AM 43.8850 -123.2167 358° North 168 193 4,900 -793 Descending Seattle Center
01:22AM 43.9286 -123.2164 360° North 157 181 4,200 -744 Descending Seattle Center
01:23AM 43.9742 -123.2172 359° North 158 182 3,400 -744 Descending Seattle Center
01:24AM 44.0139 -123.2172 360° North 157 181 2,700 -843 Descending Seattle Center
01:25AM 44.0506 -123.2178 359° North 128 147 1,700 -793 Descending Seattle Center
01:26AM 44.0794 -123.2183 359° North 106 122 1,100 -595 Descending Seattle Center
01:27AM 44.1103 -123.2186 360° North 107 123 500 -347 Descending Seattle Center
01:28AM 44.1256 -123.2175 North 82 94 400 -50 Descending Seattle Center
01:29AM 44.1233 -123.2156 148° Southeast 41 47 400  Level Seattle Center

Login

Don't have an account? Register now (free) for customized features, flight alerts, and more!